createdAt,value
2023-06-04T00:01:39.984Z,100744.84
2023-06-04T00:04:10.430Z,100748.31
2023-06-04T00:06:41.434Z,100746.97
2023-06-04T00:09:11.381Z,100747.44
2023-06-04T00:11:40.181Z,100745.06
2023-06-04T00:14:08.823Z,100751.06
2023-06-04T00:16:39.888Z,100747.13
2023-06-04T00:19:08.072Z,100751.06
2023-06-04T00:21:36.325Z,100743.25
2023-06-04T00:24:08.522Z,100739.59
2023-06-04T00:26:38.605Z,100746.06
2023-06-04T00:29:08.053Z,100748.34
2023-06-04T00:31:38.392Z,100747.44
2023-06-04T00:34:08.277Z,100751.94
2023-06-04T00:36:37.349Z,100750.59
2023-06-04T00:39:10.940Z,100754.53
2023-06-04T00:41:40.953Z,100748.00
2023-06-04T00:44:09.444Z,100751.09
2023-06-04T00:46:39.456Z,100764.16
2023-06-04T00:49:08.188Z,100759.28
2023-06-04T00:51:37.971Z,100753.47
2023-06-04T00:54:10.630Z,100751.53
2023-06-04T00:56:41.199Z,100756.44
2023-06-04T00:59:12.851Z,100762.03
2023-06-04T01:01:51.567Z,100757.88
2023-06-04T01:04:28.481Z,100758.28
2023-06-04T01:07:02.776Z,100752.97
2023-06-04T01:09:32.163Z,100752.44
2023-06-04T01:12:03.028Z,100761.28
2023-06-04T01:14:31.274Z,100764.16
2023-06-04T01:17:06.244Z,100766.09
2023-06-04T01:20:09.850Z,100762.34
2023-06-04T01:22:44.323Z,100754.53
2023-06-04T01:25:20.920Z,100762.09
2023-06-04T01:27:53.918Z,100747.44
2023-06-04T01:30:30.159Z,100748.84
2023-06-04T01:32:58.666Z,100746.19
2023-06-04T01:35:29.684Z,100747.47
2023-06-04T01:37:58.098Z,100744.09
2023-06-04T01:40:27.993Z,100751.25
2023-06-04T01:43:01.366Z,100745.94
2023-06-04T01:45:35.943Z,100745.41
2023-06-04T01:48:08.994Z,100750.28
2023-06-04T01:50:39.522Z,100746.13
2023-06-04T01:53:11.579Z,100744.59
2023-06-04T01:55:40.218Z,100753.53
2023-06-04T01:58:11.270Z,100752.81
2023-06-04T02:00:39.513Z,100752.44
2023-06-04T02:03:09.716Z,100752.00
2023-06-04T02:05:38.797Z,100759.53
2023-06-04T02:08:07.645Z,100750.88
2023-06-04T02:10:36.128Z,100751.56
2023-06-04T02:13:08.840Z,100752.72
2023-06-04T02:15:44.046Z,100753.53
2023-06-04T02:18:25.972Z,100750.19
2023-06-04T02:20:54.108Z,100754.09
2023-06-04T02:23:26.146Z,100751.16
2023-06-04T02:26:04.304Z,100753.81
2023-06-04T02:28:34.035Z,100755.06
2023-06-04T02:31:05.374Z,100757.72
2023-06-04T02:33:40.953Z,100759.78
2023-06-04T02:36:12.826Z,100763.31
2023-06-04T02:38:43.225Z,100758.81
2023-06-04T02:41:12.277Z,100760.78
2023-06-04T02:43:41.513Z,100757.84
2023-06-04T02:46:15.462Z,100766.44
2023-06-04T02:48:43.535Z,100759.47
2023-06-04T02:51:12.854Z,100762.53
2023-06-04T02:53:42.115Z,100759.59
2023-06-04T02:56:10.733Z,100768.78
2023-06-04T02:58:51.089Z,100760.41
2023-06-04T03:01:23.269Z,100760.41
2023-06-04T03:03:52.989Z,100760.00
2023-06-04T03:06:22.349Z,100761.34
2023-06-04T03:08:51.080Z,100763.88
2023-06-04T03:11:22.138Z,100762.44
2023-06-04T03:13:52.969Z,100765.22
2023-06-04T03:16:25.420Z,100773.16
2023-06-04T03:18:54.728Z,100766.44
2023-06-04T03:21:26.067Z,100767.41
2023-06-04T03:23:55.204Z,100761.94
2023-06-04T03:26:23.646Z,100764.59
2023-06-04T03:28:52.236Z,100768.22
2023-06-04T03:31:22.043Z,100764.72
2023-06-04T03:33:53.688Z,100767.53
2023-06-04T03:36:34.335Z,100756.72
2023-06-04T03:39:05.616Z,100768.31
2023-06-04T03:41:37.925Z,100772.72
2023-06-04T03:44:05.971Z,100761.56
2023-06-04T03:46:35.494Z,100767.44
2023-06-04T03:49:08.533Z,100763.81
2023-06-04T03:51:38.966Z,100772.44
2023-06-04T03:54:08.553Z,100767.69
2023-06-04T03:56:38.521Z,100771.28
2023-06-04T03:59:07.695Z,100777.88
2023-06-04T04:01:36.173Z,100779.16
2023-06-04T04:04:09.055Z,100781.53
2023-06-04T04:06:38.133Z,100780.31
2023-06-04T04:09:11.940Z,100785.50
2023-06-04T04:11:40.772Z,100779.78
2023-06-04T04:14:11.597Z,100775.19
2023-06-04T04:16:40.615Z,100777.56
2023-06-04T04:19:10.432Z,100776.75
2023-06-04T04:21:40.897Z,100778.41
2023-06-04T04:24:11.567Z,100780.41
2023-06-04T04:26:44.008Z,100780.25
2023-06-04T04:29:12.435Z,100783.63
2023-06-04T04:31:45.513Z,100787.09
2023-06-04T04:34:16.085Z,100795.38
2023-06-04T04:36:45.179Z,100793.28
2023-06-04T04:39:13.314Z,100793.97
2023-06-04T04:41:42.433Z,100792.31
2023-06-04T04:44:10.674Z,100790.47
2023-06-04T04:46:40.299Z,100795.94
2023-06-04T04:49:16.575Z,100800.25
2023-06-04T04:51:45.356Z,100796.06
2023-06-04T04:54:15.483Z,100799.97
2023-06-04T04:56:43.927Z,100796.66
2023-06-04T04:59:18.047Z,100798.91
2023-06-04T05:01:46.306Z,100798.50
2023-06-04T05:04:16.988Z,100800.47
2023-06-04T05:06:51.421Z,100805.38
2023-06-04T05:09:20.089Z,100813.78
2023-06-04T05:11:50.110Z,100810.72
2023-06-04T05:14:19.322Z,100811.16
2023-06-04T05:16:52.512Z,100814.66
2023-06-04T05:19:23.856Z,100814.09
2023-06-04T05:21:52.529Z,100819.25
2023-06-04T05:24:24.595Z,100818.28
2023-06-04T05:26:53.167Z,100825.81
2023-06-04T05:29:50.637Z,100821.66
2023-06-04T05:32:19.535Z,100835.09
2023-06-04T05:34:48.999Z,100829.06
2023-06-04T05:37:18.426Z,100826.97
2023-06-04T05:39:53.749Z,100819.88
2023-06-04T05:42:22.608Z,100828.38
2023-06-04T05:44:52.151Z,100825.88
2023-06-04T05:47:23.530Z,100826.69
2023-06-04T05:49:56.138Z,100827.25
2023-06-04T05:52:25.943Z,100833.53
2023-06-04T05:54:53.914Z,100831.16
2023-06-04T05:57:26.995Z,100826.00
2023-06-04T05:59:55.228Z,100827.66
2023-06-04T06:02:23.399Z,100822.06
2023-06-04T06:04:52.564Z,100825.81
2023-06-04T06:07:25.908Z,100816.97
2023-06-04T06:09:56.605Z,100820.44
2023-06-04T06:12:25.259Z,100822.91
2023-06-04T06:14:55.513Z,100820.38
2023-06-04T06:17:27.572Z,100826.78
2023-06-04T06:19:56.273Z,100830.22
2023-06-04T06:22:26.804Z,100837.59
2023-06-04T06:24:57.507Z,100842.44
2023-06-04T06:27:26.669Z,100852.94
2023-06-04T06:29:55.348Z,100845.19
2023-06-04T06:32:26.376Z,100848.09
2023-06-04T06:34:55.489Z,100851.31
2023-06-04T06:37:24.109Z,100848.91
2023-06-04T06:39:55.579Z,100844.81
2023-06-04T06:42:24.577Z,100849.22
2023-06-04T06:44:53.964Z,100849.16
2023-06-04T06:47:22.350Z,100847.56
2023-06-04T06:49:51.160Z,100858.44
2023-06-04T06:52:21.189Z,100857.00
2023-06-04T06:54:53.934Z,100855.94
2023-06-04T06:57:24.412Z,100852.19
2023-06-04T06:59:54.940Z,100847.63
2023-06-04T07:02:24.504Z,100849.03
2023-06-04T07:04:55.152Z,100854.31
2023-06-04T07:07:28.034Z,100853.06
2023-06-04T07:09:59.212Z,100845.13
2023-06-04T07:12:29.346Z,100856.69
2023-06-04T07:14:58.400Z,100858.38
2023-06-04T07:17:26.584Z,100850.59
2023-06-04T07:19:57.844Z,100862.00
2023-06-04T07:22:28.732Z,100862.84
2023-06-04T07:24:57.267Z,100860.06
2023-06-04T07:27:32.828Z,100855.94
2023-06-04T07:30:04.161Z,100862.97
2023-06-04T07:32:39.683Z,100860.69
2023-06-04T07:35:09.418Z,100856.38
2023-06-04T07:37:40.911Z,100855.56
2023-06-04T07:40:10.027Z,100851.91
2023-06-04T07:42:39.545Z,100851.91
2023-06-04T07:45:12.023Z,100840.59
2023-06-04T07:47:40.276Z,100851.13
2023-06-04T07:50:12.556Z,100859.13
2023-06-04T07:52:41.272Z,100853.81
2023-06-04T07:55:11.800Z,100858.00
2023-06-04T07:57:41.253Z,100866.34
2023-06-04T08:00:10.519Z,100855.69
2023-06-04T08:02:42.328Z,100849.53
2023-06-04T08:05:11.877Z,100857.69
2023-06-04T08:07:39.998Z,100859.69
2023-06-04T08:10:09.904Z,100844.66
2023-06-04T08:12:37.987Z,100846.31
2023-06-04T08:15:10.576Z,100840.94
2023-06-04T08:17:39.260Z,100844.09
2023-06-04T08:20:10.113Z,100839.94
2023-06-04T08:22:38.734Z,100841.94
2023-06-04T08:25:07.697Z,100845.75
2023-06-04T08:27:37.596Z,100842.88
2023-06-04T08:30:09.683Z,100846.53
2023-06-04T08:32:41.336Z,100844.88
2023-06-04T08:35:11.928Z,100848.34
2023-06-04T08:37:43.061Z,100845.81
2023-06-04T08:40:11.725Z,100851.78
2023-06-04T08:42:43.754Z,100846.38
2023-06-04T08:45:14.810Z,100847.19
2023-06-04T08:47:46.816Z,100843.44
2023-06-04T08:50:22.700Z,100851.91
2023-06-04T08:52:55.558Z,100847.50
2023-06-04T08:55:25.002Z,100841.94
2023-06-04T08:57:56.462Z,100847.47
2023-06-04T09:00:34.666Z,100843.81
2023-06-04T09:03:04.702Z,100850.97
2023-06-04T09:05:36.185Z,100840.34
2023-06-04T09:08:16.301Z,100844.59
2023-06-04T09:10:52.788Z,100856.94
2023-06-04T09:13:32.830Z,100846.13
2023-06-04T09:16:04.015Z,100845.88
2023-06-04T09:18:32.791Z,100839.78
2023-06-04T09:21:06.805Z,100842.59
2023-06-04T09:23:37.788Z,100851.41
2023-06-04T09:26:11.414Z,100859.63
2023-06-04T09:28:43.228Z,100864.72
2023-06-04T09:31:16.656Z,100856.03
2023-06-04T09:33:49.883Z,100846.56
2023-06-04T09:36:20.385Z,100846.22
2023-06-04T09:38:50.640Z,100851.47
2023-06-04T09:41:23.712Z,100847.59
2023-06-04T09:44:03.824Z,100846.19
2023-06-04T09:46:33.837Z,100843.78
2023-06-04T09:49:04.681Z,100841.56
2023-06-04T09:51:37.819Z,100838.94
2023-06-04T09:54:07.887Z,100841.34
2023-06-04T09:56:43.431Z,100837.31
2023-06-04T09:59:12.422Z,100839.88
2023-06-04T10:01:44.518Z,100834.84
2023-06-04T10:04:18.436Z,100833.03
2023-06-04T10:06:47.660Z,100820.44
2023-06-04T10:09:17.119Z,100826.50
2023-06-04T10:11:50.642Z,100827.41
2023-06-04T10:14:26.730Z,100827.88
2023-06-04T10:17:00.560Z,100824.63
2023-06-04T10:19:33.496Z,100824.22
2023-06-04T10:22:03.913Z,100823.47
2023-06-04T10:24:39.716Z,100824.78
2023-06-04T10:27:12.519Z,100823.41
2023-06-04T10:29:41.796Z,100825.38
2023-06-04T10:32:12.594Z,100818.16
2023-06-04T10:34:41.268Z,100822.94
2023-06-04T10:37:21.486Z,100817.41
2023-06-04T10:39:54.023Z,100822.22
2023-06-04T10:42:25.809Z,100818.97
2023-06-04T10:44:58.303Z,100829.72
2023-06-04T10:47:31.754Z,100820.84
2023-06-04T10:50:11.095Z,100810.56
2023-06-04T10:52:41.996Z,100827.34
2023-06-04T10:55:11.297Z,100819.72
2023-06-04T10:57:39.805Z,100826.97
2023-06-04T11:00:13.987Z,100822.69
2023-06-04T11:02:54.379Z,100827.47
2023-06-04T11:05:25.924Z,100826.22
2023-06-04T11:07:58.064Z,100817.94
2023-06-04T11:10:36.186Z,100814.59
2023-06-04T11:13:06.133Z,100828.50
2023-06-04T11:15:44.021Z,100817.53
2023-06-04T11:18:20.937Z,100821.97
2023-06-04T11:20:53.568Z,100821.56
2023-06-04T11:23:22.981Z,100817.00
2023-06-04T11:25:54.927Z,100829.44
2023-06-04T11:28:26.019Z,100820.16
2023-06-04T11:31:03.727Z,100815.81
2023-06-04T11:33:51.475Z,100817.25
2023-06-04T11:36:28.459Z,100810.84
2023-06-04T11:39:02.187Z,100807.75
2023-06-04T11:41:34.385Z,100800.06
2023-06-04T11:44:08.162Z,100805.66
2023-06-04T11:46:43.495Z,100800.25
2023-06-04T11:49:16.210Z,100799.63
2023-06-04T11:51:51.950Z,100807.75
2023-06-04T11:54:22.191Z,100798.44
2023-06-04T11:56:52.992Z,100792.44
2023-06-04T11:59:21.942Z,100791.59
2023-06-04T12:02:14.817Z,100783.50
2023-06-04T12:04:44.623Z,100779.09
2023-06-04T12:07:14.610Z,100777.00
2023-06-04T12:09:46.246Z,100778.63
2023-06-04T12:12:14.632Z,100779.47
2023-06-04T12:14:46.194Z,100782.50
2023-06-04T12:17:19.394Z,100773.13
2023-06-04T12:19:51.747Z,100766.66
2023-06-04T12:22:22.544Z,100764.81
2023-06-04T12:24:55.016Z,100783.41
2023-06-04T12:27:24.409Z,100765.25
2023-06-04T12:30:01.585Z,100764.16
2023-06-04T12:32:33.158Z,100759.91
2023-06-04T12:35:06.254Z,100767.94
2023-06-04T12:37:34.412Z,100765.34
2023-06-04T12:40:05.315Z,100770.06
2023-06-04T12:42:33.544Z,100763.94
2023-06-04T12:45:05.079Z,100761.38
2023-06-04T12:47:38.218Z,100758.50
2023-06-04T12:50:12.385Z,100767.94
2023-06-04T12:52:40.945Z,100763.06
2023-06-04T12:55:12.429Z,100764.88
2023-06-04T12:57:45.533Z,100746.44
2023-06-04T13:00:16.156Z,100748.78
2023-06-04T13:02:44.522Z,100745.75
2023-06-04T13:05:15.047Z,100743.75
2023-06-04T13:07:43.349Z,100748.63
2023-06-04T13:10:13.157Z,100746.72
2023-06-04T13:12:43.768Z,100743.16
2023-06-04T13:15:13.789Z,100739.00
2023-06-04T13:17:44.039Z,100745.69
2023-06-04T13:20:14.994Z,100749.84
2023-06-04T13:22:44.909Z,100741.00
2023-06-04T13:25:13.173Z,100737.09
2023-06-04T13:27:44.905Z,100749.72
2023-06-04T13:30:15.333Z,100739.81
2023-06-04T13:32:48.138Z,100738.88
2023-06-04T13:35:20.580Z,100738.75
2023-06-04T13:37:49.098Z,100731.97
2023-06-04T13:40:17.433Z,100723.38
2023-06-04T13:42:48.031Z,100729.88
2023-06-04T13:45:17.911Z,100728.22
2023-06-04T13:47:49.118Z,100734.72
2023-06-04T13:50:20.167Z,100727.25
2023-06-04T13:52:50.718Z,100731.28
2023-06-04T13:55:21.055Z,100718.38
2023-06-04T13:57:56.577Z,100724.50
2023-06-04T14:00:31.631Z,100715.59
2023-06-04T14:03:00.154Z,100708.19
2023-06-04T14:05:29.756Z,100711.69
2023-06-04T14:08:01.465Z,100697.06
2023-06-04T14:10:29.897Z,100698.75
2023-06-04T14:12:58.461Z,100705.38
2023-06-04T14:15:28.398Z,100702.13
2023-06-04T14:17:59.668Z,100699.09
2023-06-04T14:20:30.152Z,100700.56
2023-06-04T14:23:00.760Z,100701.06
2023-06-04T14:25:32.305Z,100689.31
2023-06-04T14:28:02.658Z,100692.00
2023-06-04T14:30:31.140Z,100693.84
2023-06-04T14:33:03.301Z,100689.03
2023-06-04T14:35:34.635Z,100685.16
2023-06-04T14:38:06.976Z,100688.34
2023-06-04T14:40:39.346Z,100685.56
2023-06-04T14:43:15.998Z,100685.16
2023-06-04T14:45:49.999Z,100683.56
2023-06-04T14:48:18.299Z,100684.06
2023-06-04T14:50:49.353Z,100672.13
2023-06-04T14:53:17.817Z,100673.88
2023-06-04T14:55:48.340Z,100663.69
2023-06-04T14:58:16.723Z,100664.03
2023-06-04T15:00:45.438Z,100659.03
2023-06-04T15:03:15.042Z,100657.94
2023-06-04T15:05:45.937Z,100650.59
2023-06-04T15:08:17.748Z,100654.38
2023-06-04T15:10:57.530Z,100643.78
2023-06-04T15:13:26.512Z,100647.03
2023-06-04T15:16:00.213Z,100637.16
2023-06-04T15:18:32.446Z,100630.06
2023-06-04T15:21:03.523Z,100624.75
2023-06-04T15:23:35.179Z,100629.25
2023-06-04T15:26:09.861Z,100627.19
2023-06-04T15:28:38.947Z,100627.13
2023-06-04T15:31:08.759Z,100621.94
2023-06-04T15:33:39.639Z,100631.00
2023-06-04T15:36:09.124Z,100630.41
2023-06-04T15:38:39.871Z,100624.16
2023-06-04T15:41:08.501Z,100618.31
2023-06-04T15:43:38.978Z,100616.03
2023-06-04T15:46:09.700Z,100609.38
2023-06-04T15:48:43.014Z,100613.16
2023-06-04T15:51:12.888Z,100600.69
2023-06-04T15:53:48.436Z,100608.00
2023-06-04T15:56:19.369Z,100604.69
2023-06-04T15:58:50.410Z,100610.22
2023-06-04T16:01:23.356Z,100603.72
2023-06-04T16:03:54.847Z,100595.50
2023-06-04T16:06:25.864Z,100604.03
2023-06-04T16:08:56.772Z,100596.31
2023-06-04T16:11:26.398Z,100589.91
2023-06-04T16:13:56.388Z,100590.22
2023-06-04T16:16:24.983Z,100597.13
2023-06-04T16:19:00.378Z,100581.72
2023-06-04T16:21:31.925Z,100583.84
2023-06-04T16:24:02.745Z,100585.03
2023-06-04T16:26:31.411Z,100586.69
2023-06-04T16:29:02.218Z,100584.22
2023-06-04T16:31:30.603Z,100583.34
2023-06-04T16:34:01.445Z,100591.47
2023-06-04T16:36:31.939Z,100585.41
2023-06-04T16:39:05.130Z,100581.34
2023-06-04T16:41:36.538Z,100580.53
2023-06-04T16:44:06.233Z,100577.78
2023-06-04T16:46:34.501Z,100581.81
2023-06-04T16:49:03.690Z,100586.66
2023-06-04T16:51:32.176Z,100589.81
2023-06-04T16:54:04.982Z,100585.72
2023-06-04T16:56:34.136Z,100598.59
2023-06-04T16:59:06.725Z,100586.91
2023-06-04T17:01:38.170Z,100592.25
2023-06-04T17:04:22.824Z,100585.09
2023-06-04T17:06:53.922Z,100588.41
2023-06-04T17:09:25.996Z,100599.25
2023-06-04T17:11:55.872Z,100591.16
2023-06-04T17:14:25.747Z,100588.03
2023-06-04T17:16:56.647Z,100588.72
2023-06-04T17:19:26.610Z,100590.53
2023-06-04T17:21:56.227Z,100586.66
2023-06-04T17:24:28.127Z,100591.03
2023-06-04T17:27:03.051Z,100594.91
2023-06-04T17:29:34.408Z,100595.50
2023-06-04T17:32:04.466Z,100608.03
2023-06-04T17:34:33.250Z,100601.78
2023-06-04T17:37:05.462Z,100597.81
2023-06-04T17:39:37.395Z,100608.00
2023-06-04T17:42:07.779Z,100601.84
2023-06-04T17:44:41.253Z,100620.66
2023-06-04T17:47:14.903Z,100615.09
2023-06-04T17:49:47.052Z,100617.78
2023-06-04T17:52:16.118Z,100617.56
2023-06-04T17:54:46.899Z,100612.00
2023-06-04T17:57:14.932Z,100619.19
2023-06-04T17:59:47.230Z,100622.81
2023-06-04T18:02:16.234Z,100625.84
2023-06-04T18:04:44.199Z,100626.81
2023-06-04T18:07:15.860Z,100636.91
2023-06-04T18:09:45.296Z,100631.53
2023-06-04T18:12:16.016Z,100629.81
2023-06-04T18:14:48.158Z,100630.81
2023-06-04T18:17:17.679Z,100625.41
2023-06-04T18:19:52.344Z,100645.38
2023-06-04T18:22:23.366Z,100645.03
2023-06-04T18:24:54.610Z,100645.06
2023-06-04T18:27:26.938Z,100649.47
2023-06-04T18:29:55.207Z,100656.53
2023-06-04T18:32:26.197Z,100655.72
2023-06-04T18:34:59.053Z,100657.41
2023-06-04T18:37:34.433Z,100657.59
2023-06-04T18:40:05.454Z,100664.81
2023-06-04T18:42:35.444Z,100660.63
2023-06-04T18:45:05.311Z,100657.84
2023-06-04T18:47:33.330Z,100663.53
2023-06-04T18:50:02.338Z,100666.28
2023-06-04T18:52:34.701Z,100666.13
2023-06-04T18:55:04.396Z,100657.91
2023-06-04T18:57:34.855Z,100657.09
2023-06-04T19:00:08.735Z,100667.91
2023-06-04T19:02:38.613Z,100659.41
2023-06-04T19:05:10.895Z,100667.91
2023-06-04T19:07:40.594Z,100669.19
2023-06-04T19:10:15.866Z,100672.22
2023-06-04T19:12:44.338Z,100677.81
2023-06-04T19:15:15.943Z,100682.34
2023-06-04T19:17:44.308Z,100684.38
2023-06-04T19:20:13.606Z,100688.47
2023-06-04T19:22:43.363Z,100685.91
2023-06-04T19:25:15.924Z,100696.81
2023-06-04T19:27:44.141Z,100694.09
2023-06-04T19:30:13.373Z,100696.91
2023-06-04T19:32:42.246Z,100703.22
2023-06-04T19:35:11.099Z,100705.28
2023-06-04T19:37:43.170Z,100708.28
2023-06-04T19:40:22.192Z,100705.66
2023-06-04T19:42:52.339Z,100706.47
2023-06-04T19:45:24.389Z,100707.25
2023-06-04T19:47:52.750Z,100709.50
2023-06-04T19:50:22.301Z,100715.44
2023-06-04T19:52:55.751Z,100723.25
2023-06-04T19:55:30.054Z,100720.50
2023-06-04T19:58:03.541Z,100723.97
2023-06-04T20:00:31.924Z,100725.09
2023-06-04T20:03:02.114Z,100726.25
2023-06-04T20:05:32.820Z,100729.88
2023-06-04T20:08:03.531Z,100731.44
2023-06-04T20:10:36.206Z,100733.44
2023-06-04T20:13:05.576Z,100727.97
2023-06-04T20:15:35.384Z,100737.19
2023-06-04T20:18:03.517Z,100732.56
2023-06-04T20:20:32.176Z,100744.03
2023-06-04T20:23:02.464Z,100737.41
2023-06-04T20:25:32.355Z,100734.44
2023-06-04T20:28:02.123Z,100740.72
2023-06-04T20:30:31.380Z,100744.81
2023-06-04T20:32:59.383Z,100746.91
2023-06-04T20:35:27.856Z,100752.66
2023-06-04T20:37:56.373Z,100754.00
2023-06-04T20:40:26.265Z,100754.31
2023-06-04T20:42:55.278Z,100749.22
2023-06-04T20:45:27.709Z,100757.34
2023-06-04T20:47:56.704Z,100753.91
2023-06-04T20:50:25.424Z,100752.88
2023-06-04T20:52:53.514Z,100757.63
2023-06-04T20:55:22.984Z,100764.41
2023-06-04T20:57:51.740Z,100758.47
2023-06-04T21:00:20.232Z,100767.75
2023-06-04T21:02:50.122Z,100774.72
2023-06-04T21:05:20.666Z,100761.09
2023-06-04T21:07:49.200Z,100766.66
2023-06-04T21:10:18.231Z,100775.56
2023-06-04T21:12:46.784Z,100771.91
2023-06-04T21:15:16.167Z,100773.81
2023-06-04T21:17:45.938Z,100764.94
2023-06-04T21:20:25.132Z,100775.69
2023-06-04T21:22:55.114Z,100771.50
2023-06-04T21:25:24.765Z,100764.88
2023-06-04T21:27:53.748Z,100775.06
2023-06-04T21:30:24.782Z,100772.72
2023-06-04T21:32:54.654Z,100776.75
2023-06-04T21:35:24.893Z,100769.91
2023-06-04T21:37:55.889Z,100781.78
2023-06-04T21:40:27.966Z,100773.44
2023-06-04T21:42:56.431Z,100777.47
2023-06-04T21:45:28.067Z,100773.63
2023-06-04T21:48:00.294Z,100773.63
2023-06-04T21:50:29.680Z,100777.97
2023-06-04T21:52:58.188Z,100786.84
2023-06-04T21:55:27.768Z,100782.34
2023-06-04T21:57:59.078Z,100786.53
2023-06-04T22:00:29.659Z,100785.88
2023-06-04T22:03:01.493Z,100784.19
2023-06-04T22:05:31.308Z,100785.53
2023-06-04T22:08:02.225Z,100782.19
2023-06-04T22:10:30.449Z,100778.38
2023-06-04T22:12:59.614Z,100781.03
2023-06-04T22:15:31.572Z,100777.50
2023-06-04T22:18:01.014Z,100786.38
2023-06-04T22:20:30.982Z,100783.88
2023-06-04T22:22:59.202Z,100787.03
2023-06-04T22:25:27.825Z,100784.69
2023-06-04T22:27:56.646Z,100780.50
2023-06-04T22:30:26.591Z,100784.19
2023-06-04T22:32:58.456Z,100774.50
2023-06-04T22:35:31.041Z,100781.88
2023-06-04T22:38:04.877Z,100789.88
2023-06-04T22:40:37.395Z,100778.88
2023-06-04T22:43:05.872Z,100782.69
2023-06-04T22:45:39.236Z,100779.69
2023-06-04T22:48:10.674Z,100783.84
2023-06-04T22:50:41.841Z,100788.03
2023-06-04T22:53:13.854Z,100783.19
2023-06-04T22:55:42.763Z,100782.84
2023-06-04T22:58:15.185Z,100792.16
2023-06-04T23:00:50.193Z,100787.66
2023-06-04T23:03:18.611Z,100790.69
2023-06-04T23:05:47.361Z,100792.16
2023-06-04T23:08:19.395Z,100787.66
2023-06-04T23:10:51.636Z,100783.81
2023-06-04T23:13:20.175Z,100781.47
2023-06-04T23:15:53.470Z,100789.81
2023-06-04T23:18:23.999Z,100783.06
2023-06-04T23:20:52.558Z,100783.56
2023-06-04T23:23:28.297Z,100784.38
2023-06-04T23:25:58.484Z,100790.19
2023-06-04T23:28:29.286Z,100779.84
2023-06-04T23:31:00.734Z,100786.13
2023-06-04T23:33:30.989Z,100780.28
2023-06-04T23:35:59.685Z,100778.91
2023-06-04T23:38:31.883Z,100780.38
2023-06-04T23:41:00.572Z,100786.81
2023-06-04T23:43:28.949Z,100785.13
2023-06-04T23:45:58.208Z,100786.06
2023-06-04T23:48:30.489Z,100787.69
2023-06-04T23:50:58.421Z,100792.09
2023-06-04T23:53:38.541Z,100789.75
2023-06-04T23:56:09.755Z,100790.56
2023-06-04T23:58:38.451Z,100786.38
